METAR AND TAF INFORMATION
METAR FOR LEBG
ADDS - METARS form results

(1121 UTC 23 May 2019)
Data provider http://aviationweather.gov/metar/data/
 
METAR text: LEBG 231100Z 23007KT 200V260 CAVOK 20/10 Q1019
Conditions at: LEBG (BURGOS/VILLAFRIA, ES) observed 1100 UTC 23 May 2019
Temperature: 20.0°C (68°F)
Dewpoint: 10.0°C (50°F) [RH = 53%]
Pressure (altimeter): 30.09 inches Hg (1019.0 mb)
Winds: from the SW (230 degrees) at 8 MPH (7 knots; 3.6 m/s)
Visibility: 6 or more miles (10+ km)
Ceiling: ceiling and visibility are OK
Clouds: unknown
Weather: no significant weather observed at this time

METAR text: LEBG 231030Z VRB02KT CAVOK 21/08 Q1019
Conditions at: LEBG (BURGOS/VILLAFRIA, ES) observed 1030 UTC 23 May 2019
Temperature: 21.0°C (70°F)
Dewpoint: 8.0°C (46°F) [RH = 43%]
Pressure (altimeter): 30.09 inches Hg (1019.0 mb)
Winds: variable direction winds at 2 MPH (2 knots; 1.0 m/s)
Visibility: 6 or more miles (10+ km)
Ceiling: ceiling and visibility are OK
Clouds: unknown
Weather: no significant weather observed at this time

Forecast for: LEBG (BURGOS/VILLAFRIA, ES)
Text: TAF LEBG 230800Z 2309/2318 VRB05KT CAVOK
Forecast period: 0900 to 1400 UTC 23 May 2019
Forecast type: FROM: standard forecast or significant change
Winds: variable direction winds at 6 MPH (5 knots; 2.6 m/s)
Visibility: 6 or more miles 10+ km)
Ceiling: unknown
Clouds: missing
Weather: NSW  (no significant weather)
Text: BECMG 2314/2316 03012KT
Forecast period: 1400 to 1800 UTC 23 May 2019
Forecast type: BECOMING: Conditions expected to become as follows by 1600 UTC 23 May 2019
Winds: from the NNE (30 degrees) at 14 MPH (12 knots; 6.2 m/s)
Visibility: 6 or more miles 10+ km)
Ceiling: unknown
Clouds: missing
Weather: NSW  (no significant weather)
Text: PROB30
Forecast period: 1300 to 1800 UTC 23 May 2019
Forecast type: TEMPORARY: The following changes expected for less than half the time period
Visibility: 1.86 miles (2.99 km)
Ceiling: at least 12,000 feet AGL
Clouds: scattered clouds at 4000 feet AGL
Weather: SHRA  (rain showers)

AIRPORT MAP

RUNWAY INFORMATION
Runway 06 Runway length 4393 ft Runway width 98 ft
Runway elevation 2907 ft Runway displaced threshold 0 ft Runway heading 56
Runway 24 Runway length 4393 ft Runway width 98 ft
Runway elevation 2945 ft Runway displaced threshold 0 ft Runway heading 236

AIRPORT FREQUENCIES
Type UNIC Name UNIC Frequency 122.4 MHZ

AIRPORT NEAR NAVIGATION AIDS
Type NDB Name Burgos Frequency 357 KHZ
Type VOR-DME Name Burgos Frequency 111400 KHZ